sensor_id;sensor_type;location;lat;lon;timestamp;temperature;humidity
24522;DHT22;12680;57.804;12.190;2023-04-06T00:00:38;1.80;98.70
24522;DHT22;12680;57.804;12.190;2023-04-06T00:03:05;1.80;98.90
24522;DHT22;12680;57.804;12.190;2023-04-06T00:05:32;1.80;98.90
24522;DHT22;12680;57.804;12.190;2023-04-06T00:07:59;1.70;99.10
24522;DHT22;12680;57.804;12.190;2023-04-06T00:10:26;1.70;98.80
24522;DHT22;12680;57.804;12.190;2023-04-06T00:12:53;1.70;99.00
24522;DHT22;12680;57.804;12.190;2023-04-06T00:15:20;1.70;98.90
24522;DHT22;12680;57.804;12.190;2023-04-06T00:17:47;1.70;98.90
24522;DHT22;12680;57.804;12.190;2023-04-06T00:20:14;1.60;98.90
24522;DHT22;12680;57.804;12.190;2023-04-06T00:22:41;1.60;99.00
24522;DHT22;12680;57.804;12.190;2023-04-06T00:25:08;1.60;99.10
24522;DHT22;12680;57.804;12.190;2023-04-06T00:27:37;1.70;99.10
24522;DHT22;12680;57.804;12.190;2023-04-06T00:30:05;1.60;98.90
24522;DHT22;12680;57.804;12.190;2023-04-06T00:32:34;1.60;98.80
24522;DHT22;12680;57.804;12.190;2023-04-06T00:35:02;1.50;98.80
24522;DHT22;12680;57.804;12.190;2023-04-06T00:37:29;1.50;99.00
24522;DHT22;12680;57.804;12.190;2023-04-06T00:39:56;1.50;99.00
24522;DHT22;12680;57.804;12.190;2023-04-06T00:42:24;1.50;99.20
24522;DHT22;12680;57.804;12.190;2023-04-06T00:44:58;1.60;99.30
24522;DHT22;12680;57.804;12.190;2023-04-06T00:47:25;1.60;99.30
24522;DHT22;12680;57.804;12.190;2023-04-06T00:49:53;1.60;99.20
24522;DHT22;12680;57.804;12.190;2023-04-06T00:52:21;1.60;99.20
24522;DHT22;12680;57.804;12.190;2023-04-06T00:54:49;1.60;99.20
24522;DHT22;12680;57.804;12.190;2023-04-06T00:57:16;1.60;99.30
24522;DHT22;12680;57.804;12.190;2023-04-06T00:59:43;1.60;99.30
24522;DHT22;12680;57.804;12.190;2023-04-06T01:02:11;1.70;99.40
24522;DHT22;12680;57.804;12.190;2023-04-06T01:04:37;1.60;99.30
24522;DHT22;12680;57.804;12.190;2023-04-06T01:07:04;1.60;99.10
24522;DHT22;12680;57.804;12.190;2023-04-06T01:09:31;1.50;99.10
24522;DHT22;12680;57.804;12.190;2023-04-06T01:11:58;1.50;99.10
24522;DHT22;12680;57.804;12.190;2023-04-06T01:14:25;1.50;99.00
24522;DHT22;12680;57.804;12.190;2023-04-06T01:16:52;1.40;98.80
24522;DHT22;12680;57.804;12.190;2023-04-06T01:19:20;1.30;98.80
24522;DHT22;12680;57.804;12.190;2023-04-06T01:21:47;1.30;98.90
24522;DHT22;12680;57.804;12.190;2023-04-06T01:24:15;1.20;98.90
24522;DHT22;12680;57.804;12.190;2023-04-06T01:26:43;1.20;98.90
24522;DHT22;12680;57.804;12.190;2023-04-06T01:29:10;1.20;98.90
24522;DHT22;12680;57.804;12.190;2023-04-06T01:31:38;1.20;98.80
24522;DHT22;12680;57.804;12.190;2023-04-06T01:34:05;1.20;99.00
24522;DHT22;12680;57.804;12.190;2023-04-06T01:36:32;1.20;99.00
24522;DHT22;12680;57.804;12.190;2023-04-06T01:38:59;1.10;98.90
24522;DHT22;12680;57.804;12.190;2023-04-06T01:41:26;1.10;98.80
24522;DHT22;12680;57.804;12.190;2023-04-06T01:43:52;1.00;98.80
24522;DHT22;12680;57.804;12.190;2023-04-06T01:46:21;1.10;98.90
24522;DHT22;12680;57.804;12.190;2023-04-06T01:48:48;1.00;98.80
24522;DHT22;12680;57.804;12.190;2023-04-06T01:51:15;1.00;98.80
24522;DHT22;12680;57.804;12.190;2023-04-06T01:53:42;1.00;99.00
24522;DHT22;12680;57.804;12.190;2023-04-06T01:56:09;-0.40;98.50
24522;DHT22;12680;57.804;12.190;2023-04-06T01:58:35;1.00;99.00
24522;DHT22;12680;57.804;12.190;2023-04-06T02:01:02;1.00;99.00
24522;DHT22;12680;57.804;12.190;2023-04-06T02:03:29;1.00;99.10
24522;DHT22;12680;57.804;12.190;2023-04-06T02:05:57;1.00;99.10
24522;DHT22;12680;57.804;12.190;2023-04-06T02:08:23;1.00;99.10
24522;DHT22;12680;57.804;12.190;2023-04-06T02:10:50;1.00;99.10
24522;DHT22;12680;57.804;12.190;2023-04-06T02:13:17;0.90;99.00
24522;DHT22;12680;57.804;12.190;2023-04-06T02:15:44;0.90;99.00
24522;DHT22;12680;57.804;12.190;2023-04-06T02:18:10;0.90;99.30
24522;DHT22;12680;57.804;12.190;2023-04-06T02:20:37;0.90;99.40
24522;DHT22;12680;57.804;12.190;2023-04-06T02:23:04;1.00;99.20
24522;DHT22;12680;57.804;12.190;2023-04-06T02:25:31;0.90;99.20
24522;DHT22;12680;57.804;12.190;2023-04-06T02:27:57;0.90;99.20
24522;DHT22;12680;57.804;12.190;2023-04-06T02:30:24;0.90;99.30
24522;DHT22;12680;57.804;12.190;2023-04-06T02:32:51;0.90;99.40
24522;DHT22;12680;57.804;12.190;2023-04-06T02:35:18;1.00;99.60
24522;DHT22;12680;57.804;12.190;2023-04-06T02:37:45;1.10;99.70
24522;DHT22;12680;57.804;12.190;2023-04-06T02:40:11;1.10;99.60
24522;DHT22;12680;57.804;12.190;2023-04-06T02:42:38;1.00;99.30
24522;DHT22;12680;57.804;12.190;2023-04-06T02:45:05;1.00;99.30
24522;DHT22;12680;57.804;12.190;2023-04-06T02:47:33;1.00;99.30
24522;DHT22;12680;57.804;12.190;2023-04-06T02:50:00;1.00;99.40
24522;DHT22;12680;57.804;12.190;2023-04-06T02:52:27;0.90;99.30
24522;DHT22;12680;57.804;12.190;2023-04-06T02:54:53;1.00;99.40
24522;DHT22;12680;57.804;12.190;2023-04-06T02:57:20;1.00;99.60
24522;DHT22;12680;57.804;12.190;2023-04-06T02:59:47;1.00;99.50
24522;DHT22;12680;57.804;12.190;2023-04-06T03:02:14;1.00;99.40
24522;DHT22;12680;57.804;12.190;2023-04-06T03:04:42;1.00;99.30
24522;DHT22;12680;57.804;12.190;2023-04-06T03:07:09;1.00;99.40
24522;DHT22;12680;57.804;12.190;2023-04-06T03:09:37;1.00;99.60
24522;DHT22;12680;57.804;12.190;2023-04-06T03:12:04;0.90;99.30
24522;DHT22;12680;57.804;12.190;2023-04-06T03:14:33;0.90;99.40
24522;DHT22;12680;57.804;12.190;2023-04-06T03:16:59;0.90;99.40
24522;DHT22;12680;57.804;12.190;2023-04-06T03:19:26;0.90;99.50
24522;DHT22;12680;57.804;12.190;2023-04-06T03:21:53;0.90;99.70
24522;DHT22;12680;57.804;12.190;2023-04-06T03:24:20;0.90;99.70
24522;DHT22;12680;57.804;12.190;2023-04-06T03:26:47;1.00;99.60
24522;DHT22;12680;57.804;12.190;2023-04-06T03:29:13;0.90;99.50
24522;DHT22;12680;57.804;12.190;2023-04-06T03:31:41;0.90;99.60
24522;DHT22;12680;57.804;12.190;2023-04-06T03:34:08;1.00;99.80
24522;DHT22;12680;57.804;12.190;2023-04-06T03:36:35;1.00;99.70
24522;DHT22;12680;57.804;12.190;2023-04-06T03:39:02;1.00;99.90
24522;DHT22;12680;57.804;12.190;2023-04-06T03:41:28;1.00;99.90
24522;DHT22;12680;57.804;12.190;2023-04-06T03:43:55;1.00;99.60
24522;DHT22;12680;57.804;12.190;2023-04-06T03:46:22;1.00;99.70
24522;DHT22;12680;57.804;12.190;2023-04-06T03:48:49;1.00;99.80
24522;DHT22;12680;57.804;12.190;2023-04-06T03:51:16;1.00;99.90
24522;DHT22;12680;57.804;12.190;2023-04-06T03:53:42;1.00;99.80
24522;DHT22;12680;57.804;12.190;2023-04-06T03:56:09;1.00;99.80
24522;DHT22;12680;57.804;12.190;2023-04-06T03:58:36;1.10;99.90
24522;DHT22;12680;57.804;12.190;2023-04-06T04:01:03;1.20;99.90
24522;DHT22;12680;57.804;12.190;2023-04-06T04:03:29;1.30;99.90
24522;DHT22;12680;57.804;12.190;2023-04-06T04:05:56;1.30;99.90
24522;DHT22;12680;57.804;12.190;2023-04-06T04:08:24;1.30;99.90
24522;DHT22;12680;57.804;12.190;2023-04-06T04:10:51;1.40;99.90
24522;DHT22;12680;57.804;12.190;2023-04-06T04:13:18;1.50;99.90
24522;DHT22;12680;57.804;12.190;2023-04-06T04:15:45;1.60;99.90
24522;DHT22;12680;57.804;12.190;2023-04-06T04:18:13;1.80;99.90
24522;DHT22;12680;57.804;12.190;2023-04-06T04:20:40;1.80;99.90
24522;DHT22;12680;57.804;12.190;2023-04-06T04:23:07;1.90;99.90
24522;DHT22;12680;57.804;12.190;2023-04-06T04:25:34;1.90;99.90
24522;DHT22;12680;57.804;12.190;2023-04-06T04:28:01;2.00;99.90
24522;DHT22;12680;57.804;12.190;2023-04-06T04:30:27;2.00;99.90
24522;DHT22;12680;57.804;12.190;2023-04-06T04:32:54;2.00;99.90
24522;DHT22;12680;57.804;12.190;2023-04-06T04:35:21;2.00;99.90
24522;DHT22;12680;57.804;12.190;2023-04-06T04:37:48;1.90;99.80
24522;DHT22;12680;57.804;12.190;2023-04-06T04:40:14;1.90;99.70
24522;DHT22;12680;57.804;12.190;2023-04-06T04:42:43;1.80;99.70
24522;DHT22;12680;57.804;12.190;2023-04-06T04:45:10;1.90;99.90
24522;DHT22;12680;57.804;12.190;2023-04-06T04:47:37;2.00;99.90
24522;DHT22;12680;57.804;12.190;2023-04-06T04:50:04;2.00;99.90
24522;DHT22;12680;57.804;12.190;2023-04-06T04:52:31;2.10;99.90
24522;DHT22;12680;57.804;12.190;2023-04-06T04:54:57;2.20;99.90
24522;DHT22;12680;57.804;12.190;2023-04-06T04:57:24;2.20;99.90
24522;DHT22;12680;57.804;12.190;2023-04-06T04:59:51;2.40;99.90
24522;DHT22;12680;57.804;12.190;2023-04-06T05:02:18;2.40;99.90
24522;DHT22;12680;57.804;12.190;2023-04-06T05:04:45;2.40;99.90
24522;DHT22;12680;57.804;12.190;2023-04-06T05:07:11;2.40;99.90
24522;DHT22;12680;57.804;12.190;2023-04-06T05:09:38;2.40;99.70
24522;DHT22;12680;57.804;12.190;2023-04-06T05:12:05;2.40;99.60
24522;DHT22;12680;57.804;12.190;2023-04-06T05:14:32;2.50;99.90
24522;DHT22;12680;57.804;12.190;2023-04-06T05:16:59;2.60;99.90
24522;DHT22;12680;57.804;12.190;2023-04-06T05:19:26;2.60;99.90
24522;DHT22;12680;57.804;12.190;2023-04-06T05:21:52;2.70;99.80
24522;DHT22;12680;57.804;12.190;2023-04-06T05:24:19;2.60;99.60
24522;DHT22;12680;57.804;12.190;2023-04-06T05:26:46;2.60;99.50
24522;DHT22;12680;57.804;12.190;2023-04-06T05:29:13;2.50;99.30
24522;DHT22;12680;57.804;12.190;2023-04-06T05:31:39;2.50;99.50
24522;DHT22;12680;57.804;12.190;2023-04-06T05:34:07;2.50;99.50
24522;DHT22;12680;57.804;12.190;2023-04-06T05:36:36;2.50;99.40
24522;DHT22;12680;57.804;12.190;2023-04-06T05:39:02;2.40;99.40
24522;DHT22;12680;57.804;12.190;2023-04-06T05:41:29;2.40;99.50
24522;DHT22;12680;57.804;12.190;2023-04-06T05:43:56;2.40;99.40
24522;DHT22;12680;57.804;12.190;2023-04-06T05:46:23;2.50;99.60
24522;DHT22;12680;57.804;12.190;2023-04-06T05:48:50;2.50;99.70
24522;DHT22;12680;57.804;12.190;2023-04-06T05:51:17;2.50;99.60
24522;DHT22;12680;57.804;12.190;2023-04-06T05:53:43;2.50;99.60
24522;DHT22;12680;57.804;12.190;2023-04-06T05:56:10;2.50;99.70
24522;DHT22;12680;57.804;12.190;2023-04-06T05:58:36;2.60;99.90
24522;DHT22;12680;57.804;12.190;2023-04-06T06:01:03;2.60;99.60
24522;DHT22;12680;57.804;12.190;2023-04-06T06:03:31;2.60;99.60
24522;DHT22;12680;57.804;12.190;2023-04-06T06:06:02;2.50;99.70
24522;DHT22;12680;57.804;12.190;2023-04-06T06:08:31;2.50;99.70
24522;DHT22;12680;57.804;12.190;2023-04-06T06:10:57;2.60;99.90
24522;DHT22;12680;57.804;12.190;2023-04-06T06:13:24;2.60;99.90
24522;DHT22;12680;57.804;12.190;2023-04-06T06:15:51;2.70;99.90
24522;DHT22;12680;57.804;12.190;2023-04-06T06:18:18;2.80;99.90
24522;DHT22;12680;57.804;12.190;2023-04-06T06:20:45;2.90;99.90
24522;DHT22;12680;57.804;12.190;2023-04-06T06:23:12;3.00;99.90
24522;DHT22;12680;57.804;12.190;2023-04-06T06:25:39;3.10;99.90
24522;DHT22;12680;57.804;12.190;2023-04-06T06:28:06;3.10;99.90
24522;DHT22;12680;57.804;12.190;2023-04-06T06:30:32;3.20;99.90
24522;DHT22;12680;57.804;12.190;2023-04-06T06:32:59;3.30;99.90
24522;DHT22;12680;57.804;12.190;2023-04-06T06:35:26;3.40;99.90
24522;DHT22;12680;57.804;12.190;2023-04-06T06:37:53;3.40;99.90
24522;DHT22;12680;57.804;12.190;2023-04-06T06:40:19;3.40;99.90
24522;DHT22;12680;57.804;12.190;2023-04-06T06:42:48;3.40;99.90
24522;DHT22;12680;57.804;12.190;2023-04-06T06:45:15;3.30;99.90
24522;DHT22;12680;57.804;12.190;2023-04-06T06:47:42;3.40;99.90
24522;DHT22;12680;57.804;12.190;2023-04-06T06:50:09;3.40;99.90
24522;DHT22;12680;57.804;12.190;2023-04-06T06:52:36;3.50;99.90
24522;DHT22;12680;57.804;12.190;2023-04-06T06:55:03;3.60;99.90
24522;DHT22;12680;57.804;12.190;2023-04-06T06:57:29;3.70;99.90
24522;DHT22;12680;57.804;12.190;2023-04-06T06:59:56;3.70;99.90
24522;DHT22;12680;57.804;12.190;2023-04-06T07:02:23;3.90;99.90
24522;DHT22;12680;57.804;12.190;2023-04-06T07:04:50;4.00;99.90
24522;DHT22;12680;57.804;12.190;2023-04-06T07:07:17;4.10;99.90
24522;DHT22;12680;57.804;12.190;2023-04-06T07:09:43;4.20;99.90
24522;DHT22;12680;57.804;12.190;2023-04-06T07:12:10;4.10;99.90
24522;DHT22;12680;57.804;12.190;2023-04-06T07:14:37;4.10;99.90
24522;DHT22;12680;57.804;12.190;2023-04-06T07:17:03;4.20;99.90
24522;DHT22;12680;57.804;12.190;2023-04-06T07:19:30;4.30;99.90
24522;DHT22;12680;57.804;12.190;2023-04-06T07:21:57;4.30;99.90
24522;DHT22;12680;57.804;12.190;2023-04-06T07:24:24;4.40;99.90
24522;DHT22;12680;57.804;12.190;2023-04-06T07:26:51;4.50;99.90
24522;DHT22;12680;57.804;12.190;2023-04-06T07:29:18;4.60;99.90
24522;DHT22;12680;57.804;12.190;2023-04-06T07:31:44;4.70;99.90
24522;DHT22;12680;57.804;12.190;2023-04-06T07:34:11;4.80;99.90
24522;DHT22;12680;57.804;12.190;2023-04-06T07:36:38;5.00;99.90
24522;DHT22;12680;57.804;12.190;2023-04-06T07:39:05;5.10;99.90
24522;DHT22;12680;57.804;12.190;2023-04-06T07:41:33;5.00;99.90
24522;DHT22;12680;57.804;12.190;2023-04-06T07:43:59;5.00;99.90
24522;DHT22;12680;57.804;12.190;2023-04-06T07:46:26;5.10;99.90
24522;DHT22;12680;57.804;12.190;2023-04-06T07:48:53;5.00;99.90
24522;DHT22;12680;57.804;12.190;2023-04-06T07:51:19;5.10;99.90
24522;DHT22;12680;57.804;12.190;2023-04-06T07:53:46;5.00;99.70
24522;DHT22;12680;57.804;12.190;2023-04-06T07:56:13;5.00;99.70
24522;DHT22;12680;57.804;12.190;2023-04-06T07:58:41;4.90;99.70
24522;DHT22;12680;57.804;12.190;2023-04-06T08:01:08;4.90;99.80
24522;DHT22;12680;57.804;12.190;2023-04-06T08:03:35;4.90;99.80
24522;DHT22;12680;57.804;12.190;2023-04-06T08:06:03;4.90;99.90
24522;DHT22;12680;57.804;12.190;2023-04-06T08:08:30;4.90;99.90
24522;DHT22;12680;57.804;12.190;2023-04-06T08:10:57;5.00;99.90
24522;DHT22;12680;57.804;12.190;2023-04-06T08:13:28;5.00;99.90
24522;DHT22;12680;57.804;12.190;2023-04-06T08:15:54;5.00;99.90
24522;DHT22;12680;57.804;12.190;2023-04-06T08:18:21;4.90;99.90
24522;DHT22;12680;57.804;12.190;2023-04-06T08:20:48;5.00;99.90
24522;DHT22;12680;57.804;12.190;2023-04-06T08:23:15;5.10;99.90
24522;DHT22;12680;57.804;12.190;2023-04-06T08:25:42;5.10;99.90
24522;DHT22;12680;57.804;12.190;2023-04-06T08:28:09;5.20;99.90
24522;DHT22;12680;57.804;12.190;2023-04-06T08:30:36;5.30;99.90
24522;DHT22;12680;57.804;12.190;2023-04-06T08:33:03;5.40;99.90
24522;DHT22;12680;57.804;12.190;2023-04-06T08:35:30;5.50;99.90
24522;DHT22;12680;57.804;12.190;2023-04-06T08:37:57;5.50;99.90
24522;DHT22;12680;57.804;12.190;2023-04-06T08:40:24;5.50;99.80
24522;DHT22;12680;57.804;12.190;2023-04-06T08:42:55;5.50;99.80
24522;DHT22;12680;57.804;12.190;2023-04-06T08:45:22;5.40;99.70
24522;DHT22;12680;57.804;12.190;2023-04-06T08:47:50;5.50;99.90
24522;DHT22;12680;57.804;12.190;2023-04-06T08:50:18;5.60;99.90
24522;DHT22;12680;57.804;12.190;2023-04-06T08:52:47;5.70;99.90
24522;DHT22;12680;57.804;12.190;2023-04-06T08:55:15;5.70;99.90
24522;DHT22;12680;57.804;12.190;2023-04-06T08:57:42;5.70;99.70
24522;DHT22;12680;57.804;12.190;2023-04-06T09:00:10;5.60;99.60
24522;DHT22;12680;57.804;12.190;2023-04-06T09:02:43;5.50;99.70
24522;DHT22;12680;57.804;12.190;2023-04-06T09:05:10;5.50;99.90
24522;DHT22;12680;57.804;12.190;2023-04-06T09:07:37;5.50;99.90
24522;DHT22;12680;57.804;12.190;2023-04-06T09:10:05;5.60;99.90
24522;DHT22;12680;57.804;12.190;2023-04-06T09:12:32;5.70;99.90
24522;DHT22;12680;57.804;12.190;2023-04-06T09:14:59;5.80;99.90
24522;DHT22;12680;57.804;12.190;2023-04-06T09:17:31;5.90;99.90
24522;DHT22;12680;57.804;12.190;2023-04-06T09:20:02;5.90;99.90
24522;DHT22;12680;57.804;12.190;2023-04-06T09:22:40;6.00;99.90
24522;DHT22;12680;57.804;12.190;2023-04-06T09:25:10;6.20;99.90
24522;DHT22;12680;57.804;12.190;2023-04-06T09:27:44;6.30;99.90
24522;DHT22;12680;57.804;12.190;2023-04-06T09:30:12;6.40;99.90
24522;DHT22;12680;57.804;12.190;2023-04-06T09:32:48;6.60;99.90
24522;DHT22;12680;57.804;12.190;2023-04-06T09:35:16;6.70;99.90
24522;DHT22;12680;57.804;12.190;2023-04-06T09:37:43;6.80;99.90
24522;DHT22;12680;57.804;12.190;2023-04-06T09:40:11;7.00;99.90
24522;DHT22;12680;57.804;12.190;2023-04-06T09:42:41;7.10;99.90
24522;DHT22;12680;57.804;12.190;2023-04-06T09:45:08;7.10;99.80
24522;DHT22;12680;57.804;12.190;2023-04-06T09:47:40;7.20;99.70
24522;DHT22;12680;57.804;12.190;2023-04-06T09:50:11;7.20;99.70
24522;DHT22;12680;57.804;12.190;2023-04-06T09:52:41;7.30;99.70
24522;DHT22;12680;57.804;12.190;2023-04-06T09:55:09;7.30;99.70
24522;DHT22;12680;57.804;12.190;2023-04-06T10:00:17;7.50;99.70
24522;DHT22;12680;57.804;12.190;2023-04-06T10:02:58;7.70;99.90
24522;DHT22;12680;57.804;12.190;2023-04-06T10:05:37;7.90;99.90
24522;DHT22;12680;57.804;12.190;2023-04-06T10:08:09;8.10;99.70
24522;DHT22;12680;57.804;12.190;2023-04-06T10:10:37;8.20;99.30
24522;DHT22;12680;57.804;12.190;2023-04-06T10:13:05;8.10;99.30
24522;DHT22;12680;57.804;12.190;2023-04-06T10:15:33;8.10;99.40
24522;DHT22;12680;57.804;12.190;2023-04-06T10:18:02;8.00;99.40
24522;DHT22;12680;57.804;12.190;2023-04-06T10:20:39;8.00;99.50
24522;DHT22;12680;57.804;12.190;2023-04-06T10:23:13;8.10;99.50
24522;DHT22;12680;57.804;12.190;2023-04-06T10:25:59;8.30;99.60
24522;DHT22;12680;57.804;12.190;2023-04-06T10:28:35;8.30;99.40
24522;DHT22;12680;57.804;12.190;2023-04-06T10:31:05;8.40;99.30
24522;DHT22;12680;57.804;12.190;2023-04-06T10:33:33;8.40;99.40
24522;DHT22;12680;57.804;12.190;2023-04-06T10:36:13;8.50;99.50
24522;DHT22;12680;57.804;12.190;2023-04-06T10:38:41;8.50;99.50
24522;DHT22;12680;57.804;12.190;2023-04-06T10:41:10;8.70;99.70
24522;DHT22;12680;57.804;12.190;2023-04-06T10:43:39;8.80;99.60
24522;DHT22;12680;57.804;12.190;2023-04-06T10:46:08;8.90;99.40
24522;DHT22;12680;57.804;12.190;2023-04-06T10:48:45;9.00;99.20
24522;DHT22;12680;57.804;12.190;2023-04-06T10:51:15;8.90;99.20
24522;DHT22;12680;57.804;12.190;2023-04-06T10:53:44;8.80;99.20
24522;DHT22;12680;57.804;12.190;2023-04-06T10:56:13;8.80;99.20
24522;DHT22;12680;57.804;12.190;2023-04-06T10:58:48;8.80;99.40
24522;DHT22;12680;57.804;12.190;2023-04-06T11:01:15;8.90;99.40
24522;DHT22;12680;57.804;12.190;2023-04-06T11:03:48;8.90;99.40
24522;DHT22;12680;57.804;12.190;2023-04-06T11:06:21;9.00;99.60
24522;DHT22;12680;57.804;12.190;2023-04-06T11:08:49;9.00;99.50
24522;DHT22;12680;57.804;12.190;2023-04-06T11:11:17;9.00;99.40
24522;DHT22;12680;57.804;12.190;2023-04-06T11:13:46;8.90;99.50
24522;DHT22;12680;57.804;12.190;2023-04-06T11:16:18;9.00;99.60
24522;DHT22;12680;57.804;12.190;2023-04-06T11:18:54;9.10;99.50
24522;DHT22;12680;57.804;12.190;2023-04-06T11:26:31;8.60;98.90
24522;DHT22;12680;57.804;12.190;2023-04-06T11:28:58;8.50;99.00
24522;DHT22;12680;57.804;12.190;2023-04-06T11:31:25;8.40;99.10
24522;DHT22;12680;57.804;12.190;2023-04-06T11:33:59;8.30;99.20
24522;DHT22;12680;57.804;12.190;2023-04-06T11:36:28;8.20;99.20
24522;DHT22;12680;57.804;12.190;2023-04-06T11:38:56;8.20;99.40
24522;DHT22;12680;57.804;12.190;2023-04-06T11:41:23;8.20;99.40
24522;DHT22;12680;57.804;12.190;2023-04-06T11:43:55;8.10;99.60
24522;DHT22;12680;57.804;12.190;2023-04-06T11:46:22;8.10;99.40
24522;DHT22;12680;57.804;12.190;2023-04-06T11:48:49;8.00;99.40
24522;DHT22;12680;57.804;12.190;2023-04-06T11:51:22;8.00;99.40
24522;DHT22;12680;57.804;12.190;2023-04-06T11:53:54;7.90;99.50
24522;DHT22;12680;57.804;12.190;2023-04-06T11:56:28;7.90;99.50
24522;DHT22;12680;57.804;12.190;2023-04-06T11:58:56;7.80;99.50
24522;DHT22;12680;57.804;12.190;2023-04-06T12:01:24;7.80;99.70
24522;DHT22;12680;57.804;12.190;2023-04-06T12:03:52;7.80;99.70
24522;DHT22;12680;57.804;12.190;2023-04-06T12:06:19;7.80;99.80
24522;DHT22;12680;57.804;12.190;2023-04-06T12:08:46;7.80;99.80
24522;DHT22;12680;57.804;12.190;2023-04-06T12:11:13;7.80;99.90
24522;DHT22;12680;57.804;12.190;2023-04-06T12:13:40;7.70;99.80
24522;DHT22;12680;57.804;12.190;2023-04-06T12:16:06;7.60;99.70
24522;DHT22;12680;57.804;12.190;2023-04-06T12:18:33;7.60;99.90
24522;DHT22;12680;57.804;12.190;2023-04-06T12:21:00;7.70;99.90
24522;DHT22;12680;57.804;12.190;2023-04-06T12:23:27;7.80;99.90
24522;DHT22;12680;57.804;12.190;2023-04-06T12:25:53;8.00;99.90
24522;DHT22;12680;57.804;12.190;2023-04-06T12:28:21;8.20;99.90
24522;DHT22;12680;57.804;12.190;2023-04-06T12:30:50;8.30;99.90
24522;DHT22;12680;57.804;12.190;2023-04-06T12:33:17;8.50;99.90
24522;DHT22;12680;57.804;12.190;2023-04-06T12:35:44;8.90;99.90
24522;DHT22;12680;57.804;12.190;2023-04-06T12:38:10;9.40;99.90
24522;DHT22;12680;57.804;12.190;2023-04-06T12:40:38;9.60;99.90
24522;DHT22;12680;57.804;12.190;2023-04-06T12:43:05;9.60;99.90
24522;DHT22;12680;57.804;12.190;2023-04-06T12:45:32;9.70;99.90
24522;DHT22;12680;57.804;12.190;2023-04-06T12:47:58;9.70;99.90
24522;DHT22;12680;57.804;12.190;2023-04-06T12:50:26;9.70;99.90
24522;DHT22;12680;57.804;12.190;2023-04-06T12:52:52;10.90;99.90
24522;DHT22;12680;57.804;12.190;2023-04-06T12:55:19;9.90;99.90
24522;DHT22;12680;57.804;12.190;2023-04-06T12:57:47;10.10;99.90
24522;DHT22;12680;57.804;12.190;2023-04-06T13:00:14;10.20;99.90
24522;DHT22;12680;57.804;12.190;2023-04-06T13:02:41;10.40;99.70
24522;DHT22;12680;57.804;12.190;2023-04-06T13:05:14;10.40;99.20
24522;DHT22;12680;57.804;12.190;2023-04-06T13:07:45;10.50;99.10
24522;DHT22;12680;57.804;12.190;2023-04-06T13:10:13;10.60;99.00
24522;DHT22;12680;57.804;12.190;2023-04-06T13:12:40;10.50;98.80
24522;DHT22;12680;57.804;12.190;2023-04-06T13:15:07;10.50;98.60
24522;DHT22;12680;57.804;12.190;2023-04-06T13:17:34;10.50;98.50
24522;DHT22;12680;57.804;12.190;2023-04-06T13:20:00;10.50;98.40
24522;DHT22;12680;57.804;12.190;2023-04-06T13:22:27;10.50;98.40
24522;DHT22;12680;57.804;12.190;2023-04-06T13:24:54;10.50;98.40
24522;DHT22;12680;57.804;12.190;2023-04-06T13:27:21;10.50;98.30
24522;DHT22;12680;57.804;12.190;2023-04-06T13:29:48;10.50;98.30
24522;DHT22;12680;57.804;12.190;2023-04-06T13:32:14;10.50;98.40
24522;DHT22;12680;57.804;12.190;2023-04-06T13:34:42;10.50;98.20
24522;DHT22;12680;57.804;12.190;2023-04-06T13:37:14;10.50;98.20
24522;DHT22;12680;57.804;12.190;2023-04-06T13:39:41;10.40;98.30
24522;DHT22;12680;57.804;12.190;2023-04-06T13:42:08;10.40;98.10
24522;DHT22;12680;57.804;12.190;2023-04-06T13:44:36;10.30;98.00
24522;DHT22;12680;57.804;12.190;2023-04-06T13:47:03;10.20;98.00
24522;DHT22;12680;57.804;12.190;2023-04-06T13:49:30;10.10;98.00
24522;DHT22;12680;57.804;12.190;2023-04-06T13:51:56;10.10;98.00
24522;DHT22;12680;57.804;12.190;2023-04-06T13:54:23;10.00;98.20
24522;DHT22;12680;57.804;12.190;2023-04-06T13:56:51;10.10;98.30
24522;DHT22;12680;57.804;12.190;2023-04-06T13:59:18;10.10;98.40
24522;DHT22;12680;57.804;12.190;2023-04-06T14:01:45;10.10;98.40
24522;DHT22;12680;57.804;12.190;2023-04-06T14:04:12;10.20;98.50
24522;DHT22;12680;57.804;12.190;2023-04-06T14:06:38;10.40;98.50
24522;DHT22;12680;57.804;12.190;2023-04-06T14:09:06;11.30;98.60
24522;DHT22;12680;57.804;12.190;2023-04-06T14:11:33;10.50;98.20
24522;DHT22;12680;57.804;12.190;2023-04-06T14:14:00;10.50;98.00
24522;DHT22;12680;57.804;12.190;2023-04-06T14:16:26;10.60;98.20
24522;DHT22;12680;57.804;12.190;2023-04-06T14:18:53;10.80;98.40
24522;DHT22;12680;57.804;12.190;2023-04-06T14:21:20;11.00;98.00
24522;DHT22;12680;57.804;12.190;2023-04-06T14:23:47;11.00;97.70
24522;DHT22;12680;57.804;12.190;2023-04-06T14:26:13;11.00;97.50
24522;DHT22;12680;57.804;12.190;2023-04-06T14:28:41;10.90;97.10
24522;DHT22;12680;57.804;12.190;2023-04-06T14:31:13;10.80;97.30
24522;DHT22;12680;57.804;12.190;2023-04-06T14:33:41;10.70;97.30
24522;DHT22;12680;57.804;12.190;2023-04-06T14:36:09;10.60;97.20
24522;DHT22;12680;57.804;12.190;2023-04-06T14:38:36;10.50;97.20
24522;DHT22;12680;57.804;12.190;2023-04-06T14:41:02;10.50;97.20
24522;DHT22;12680;57.804;12.190;2023-04-06T14:43:29;10.30;97.10
24522;DHT22;12680;57.804;12.190;2023-04-06T14:46:00;10.30;97.20
24522;DHT22;12680;57.804;12.190;2023-04-06T14:48:27;10.30;97.30
24522;DHT22;12680;57.804;12.190;2023-04-06T14:50:57;10.20;97.30
24522;DHT22;12680;57.804;12.190;2023-04-06T14:53:25;10.20;97.30
24522;DHT22;12680;57.804;12.190;2023-04-06T14:55:52;10.10;97.20
24522;DHT22;12680;57.804;12.190;2023-04-06T14:58:19;10.10;97.50
24522;DHT22;12680;57.804;12.190;2023-04-06T15:00:47;10.10;97.20
24522;DHT22;12680;57.804;12.190;2023-04-06T15:03:14;10.00;97.20
24522;DHT22;12680;57.804;12.190;2023-04-06T15:05:42;10.00;97.20
24522;DHT22;12680;57.804;12.190;2023-04-06T15:08:09;9.90;97.10
24522;DHT22;12680;57.804;12.190;2023-04-06T15:10:36;9.90;97.20
24522;DHT22;12680;57.804;12.190;2023-04-06T15:13:03;9.80;97.20
24522;DHT22;12680;57.804;12.190;2023-04-06T15:15:30;9.80;97.30
24522;DHT22;12680;57.804;12.190;2023-04-06T15:17:56;9.80;97.40
24522;DHT22;12680;57.804;12.190;2023-04-06T15:20:23;9.80;97.40
24522;DHT22;12680;57.804;12.190;2023-04-06T15:22:51;9.80;97.40
24522;DHT22;12680;57.804;12.190;2023-04-06T15:25:17;9.70;97.40
24522;DHT22;12680;57.804;12.190;2023-04-06T15:27:44;9.70;97.40
24522;DHT22;12680;57.804;12.190;2023-04-06T15:30:11;9.70;97.60
24522;DHT22;12680;57.804;12.190;2023-04-06T15:32:38;9.70;97.70
24522;DHT22;12680;57.804;12.190;2023-04-06T15:35:09;9.70;97.80
24522;DHT22;12680;57.804;12.190;2023-04-06T15:37:37;9.80;97.90